createdAt,value
2022-10-09T00:01:14.683Z,7.75
2022-10-09T00:03:43.583Z,7.10
2022-10-09T00:06:13.091Z,7.70
2022-10-09T00:08:40.827Z,7.95
2022-10-09T00:11:09.175Z,8.57
2022-10-09T00:13:36.878Z,9.20
2022-10-09T00:16:05.467Z,7.65
2022-10-09T00:18:32.155Z,7.70
2022-10-09T00:20:59.020Z,7.18
2022-10-09T00:23:25.708Z,6.65
2022-10-09T00:25:55.274Z,7.28
2022-10-09T00:28:24.135Z,7.13
2022-10-09T00:30:50.722Z,7.28
2022-10-09T00:33:17.418Z,6.15
2022-10-09T00:35:44.086Z,5.60
2022-10-09T00:38:10.874Z,5.25
2022-10-09T00:40:38.234Z,5.65
2022-10-09T00:43:13.487Z,4.82
2022-10-09T00:45:44.738Z,5.90
2022-10-09T00:48:12.358Z,5.95
2022-10-09T00:50:44.639Z,5.60
2022-10-09T00:53:15.086Z,6.22
2022-10-09T00:55:43.144Z,6.68
2022-10-09T00:58:12.913Z,5.75
2022-10-09T01:00:40.162Z,6.55
2022-10-09T01:03:06.731Z,6.72
2022-10-09T01:08:25.519Z,6.20
2022-10-09T01:11:04.250Z,6.60
2022-10-09T01:13:57.718Z,5.90
2022-10-09T01:16:29.375Z,7.00
2022-10-09T01:19:01.883Z,6.90
2022-10-09T01:21:37.356Z,7.03
2022-10-09T01:24:19.949Z,7.90
2022-10-09T01:26:58.006Z,6.20
2022-10-09T01:29:30.566Z,7.28
2022-10-09T01:31:59.070Z,6.85
2022-10-09T01:34:27.585Z,6.18
2022-10-09T01:36:56.581Z,6.47
2022-10-09T01:39:25.152Z,7.07
2022-10-09T01:41:53.539Z,5.22
2022-10-09T01:44:22.924Z,5.43
2022-10-09T01:46:49.824Z,5.50
2022-10-09T01:49:37.962Z,6.05
2022-10-09T01:52:14.148Z,5.93
2022-10-09T01:55:03.132Z,5.60
2022-10-09T01:57:39.724Z,4.20
2022-10-09T02:00:10.183Z,4.38
2022-10-09T02:02:42.248Z,4.20
2022-10-09T02:05:17.541Z,3.42
2022-10-09T02:07:44.259Z,3.80
2022-10-09T02:10:11.517Z,4.43
2022-10-09T02:12:46.901Z,4.40
2022-10-09T02:15:13.995Z,5.80
2022-10-09T02:17:45.779Z,5.88
2022-10-09T02:20:19.641Z,5.10
2022-10-09T02:22:47.023Z,5.30
2022-10-09T02:25:14.669Z,5.13
2022-10-09T02:27:41.577Z,4.75
2022-10-09T02:30:09.818Z,5.45
2022-10-09T02:32:36.462Z,5.22
2022-10-09T02:35:03.256Z,5.40
2022-10-09T02:37:29.791Z,7.10
2022-10-09T02:42:22.758Z,6.20
2022-10-09T02:47:15.735Z,5.32
2022-10-09T02:52:08.864Z,5.28
2022-10-09T02:54:35.378Z,6.20
2022-10-09T02:59:28.367Z,5.95
2022-10-09T03:04:22.514Z,4.70
2022-10-09T03:09:15.484Z,6.13
2022-10-09T03:14:09.581Z,6.28
2022-10-09T03:16:36.317Z,6.97
2022-10-09T03:19:03.114Z,6.55
2022-10-09T03:21:29.792Z,5.13
2022-10-09T03:23:56.870Z,5.65
2022-10-09T03:26:25.892Z,5.95
2022-10-09T03:28:54.305Z,5.85
2022-10-09T03:31:46.969Z,6.07
2022-10-09T03:34:11.191Z,5.20
2022-10-09T03:36:37.795Z,5.80
2022-10-09T03:41:30.773Z,5.95
2022-10-09T03:46:23.766Z,5.72
2022-10-09T03:48:50.366Z,5.03
2022-10-09T03:53:43.364Z,5.35
2022-10-09T03:58:36.685Z,5.68
2022-10-09T04:01:03.263Z,5.88
2022-10-09T04:03:29.926Z,5.03
2022-10-09T04:05:56.544Z,4.78
2022-10-09T04:10:56.937Z,5.35
2022-10-09T04:13:23.504Z,6.07
2022-10-09T04:18:17.751Z,5.60
2022-10-09T04:20:54.813Z,5.60
2022-10-09T04:25:53.845Z,5.30
2022-10-09T04:28:20.586Z,5.85
2022-10-09T04:30:47.109Z,5.65
2022-10-09T04:35:46.916Z,5.13
2022-10-09T04:38:13.486Z,5.75
2022-10-09T04:43:06.545Z,5.18
2022-10-09T04:47:59.611Z,5.72
2022-10-09T04:52:58.573Z,5.22
2022-10-09T04:55:25.546Z,4.38
2022-10-09T04:57:52.084Z,5.32
2022-10-09T05:02:45.038Z,5.20
2022-10-09T05:07:38.633Z,5.25
2022-10-09T05:10:06.572Z,4.78
2022-10-09T05:12:33.101Z,5.38
2022-10-09T05:17:26.075Z,6.03
2022-10-09T05:22:19.032Z,5.28
2022-10-09T05:27:12.213Z,5.28
2022-10-09T05:32:05.271Z,5.00
2022-10-09T05:34:33.987Z,4.88
2022-10-09T05:37:00.563Z,5.03
2022-10-09T05:41:53.508Z,5.03
2022-10-09T05:46:46.506Z,5.10
2022-10-09T05:51:42.760Z,5.32
2022-10-09T05:54:15.039Z,5.85
2022-10-09T05:56:42.344Z,5.10
2022-10-09T05:59:11.569Z,6.07
2022-10-09T06:01:40.946Z,6.15
2022-10-09T06:04:10.932Z,5.25
2022-10-09T06:06:39.371Z,6.18
2022-10-09T06:09:07.774Z,5.90
2022-10-09T06:11:37.279Z,5.15
2022-10-09T06:14:05.619Z,6.22
2022-10-09T06:16:35.381Z,5.50
2022-10-09T06:19:03.329Z,5.97
2022-10-09T06:21:30.083Z,6.32
2022-10-09T06:23:59.618Z,6.05
2022-10-09T06:26:29.301Z,6.28
2022-10-09T06:29:00.778Z,5.68
2022-10-09T06:31:29.841Z,7.05
2022-10-09T06:33:59.129Z,6.47
2022-10-09T06:36:28.705Z,5.05
2022-10-09T06:38:55.664Z,7.15
2022-10-09T06:41:24.323Z,13.43
2022-10-09T06:43:54.311Z,7.18
2022-10-09T06:46:23.015Z,5.47
2022-10-09T06:48:49.690Z,7.75
2022-10-09T06:53:46.907Z,6.75
2022-10-09T06:56:14.784Z,9.23
2022-10-09T06:58:42.155Z,9.75
2022-10-09T07:01:13.142Z,8.63
2022-10-09T07:03:41.875Z,8.80
2022-10-09T07:06:12.608Z,9.20
2022-10-09T07:08:41.237Z,8.63
2022-10-09T07:11:10.232Z,9.90
2022-10-09T07:13:37.713Z,9.18
2022-10-09T07:16:05.114Z,8.18
2022-10-09T07:18:34.198Z,8.63
2022-10-09T07:21:02.309Z,9.95
2022-10-09T07:23:30.535Z,11.48
2022-10-09T07:25:58.377Z,10.98
2022-10-09T07:28:26.952Z,10.48
2022-10-09T07:30:53.934Z,10.32
2022-10-09T07:33:20.473Z,9.50
2022-10-09T07:38:27.323Z,10.40
2022-10-09T07:40:54.766Z,10.25
2022-10-09T07:43:22.334Z,9.93
2022-10-09T07:45:48.885Z,9.68
2022-10-09T07:48:15.559Z,9.27
2022-10-09T07:53:08.837Z,9.63
2022-10-09T07:55:36.189Z,8.05
2022-10-09T07:58:02.853Z,10.88
2022-10-09T08:00:29.421Z,9.45
2022-10-09T08:05:22.576Z,7.90
2022-10-09T08:07:49.212Z,7.60
2022-10-09T08:10:15.800Z,7.57
2022-10-09T08:15:09.292Z,8.52
2022-10-09T08:17:35.866Z,8.13
2022-10-09T08:22:28.844Z,8.07
2022-10-09T08:27:21.785Z,8.15
2022-10-09T08:32:14.996Z,6.75
2022-10-09T08:34:41.536Z,7.53
2022-10-09T08:39:34.449Z,7.30
2022-10-09T08:44:39.546Z,6.78
2022-10-09T08:47:13.968Z,5.53
2022-10-09T08:49:47.317Z,4.97
2022-10-09T08:52:38.224Z,6.05
2022-10-09T08:55:24.548Z,6.03
2022-10-09T08:57:54.873Z,6.63
2022-10-09T09:00:24.420Z,6.35
2022-10-09T09:03:13.937Z,5.65
2022-10-09T09:05:51.943Z,5.47
2022-10-09T09:09:05.279Z,5.53
2022-10-09T09:11:44.086Z,5.15
2022-10-09T09:14:40.194Z,5.00
2022-10-09T09:17:26.956Z,5.20
2022-10-09T09:20:24.644Z,4.67
2022-10-09T09:22:52.204Z,5.78
2022-10-09T09:25:34.993Z,5.63
2022-10-09T09:28:33.264Z,5.50
2022-10-09T09:34:13.914Z,5.90
2022-10-09T09:36:54.129Z,5.55
2022-10-09T09:42:10.253Z,4.93
2022-10-09T09:44:44.952Z,4.40
2022-10-09T09:47:22.415Z,4.95
2022-10-09T09:50:00.534Z,5.35
2022-10-09T09:52:34.486Z,4.72
2022-10-09T09:55:01.222Z,4.43
2022-10-09T09:57:33.105Z,4.35
2022-10-09T10:00:10.253Z,4.82
2022-10-09T10:05:17.350Z,4.07
2022-10-09T10:07:44.283Z,3.20
2022-10-09T10:10:27.900Z,4.00
2022-10-09T10:12:59.943Z,3.63
2022-10-09T10:33:19.224Z,3.92
2022-10-09T10:35:51.796Z,3.58
2022-10-09T10:38:33.591Z,3.67
2022-10-09T10:41:14.255Z,3.85
2022-10-09T10:43:46.329Z,3.28
2022-10-09T10:46:23.607Z,4.40
2022-10-09T10:48:51.610Z,5.68
2022-10-09T10:51:35.469Z,5.07
2022-10-09T10:54:38.178Z,4.45
2022-10-09T10:57:42.447Z,3.95
2022-10-09T11:00:13.965Z,3.45
2022-10-09T11:03:03.228Z,4.47
2022-10-09T11:05:44.835Z,3.33
2022-10-09T11:08:47.514Z,4.00
2022-10-09T11:11:17.012Z,3.63
2022-10-09T11:13:58.370Z,3.45
2022-10-09T11:16:37.186Z,3.35
2022-10-09T11:19:22.312Z,3.92
2022-10-09T11:22:02.518Z,2.83
2022-10-09T11:24:45.178Z,3.55
2022-10-09T11:27:41.658Z,2.90
2022-10-09T11:30:16.775Z,2.60
2022-10-09T11:33:05.211Z,2.42
2022-10-09T11:35:40.336Z,2.85
2022-10-09T11:38:25.578Z,2.75
2022-10-09T11:40:53.376Z,2.28
2022-10-09T11:43:25.978Z,2.40
2022-10-09T11:46:01.433Z,2.30
2022-10-09T11:48:51.906Z,2.40
2022-10-09T11:51:38.125Z,2.97
2022-10-09T11:54:11.050Z,2.42
2022-10-09T11:56:37.533Z,2.22
2022-10-09T11:59:06.569Z,2.63
2022-10-09T12:01:37.067Z,2.17
2022-10-09T12:04:08.597Z,2.70
2022-10-09T12:06:50.946Z,2.35
2022-10-09T12:09:32.038Z,2.22
2022-10-09T12:12:09.203Z,2.65
2022-10-09T12:14:37.833Z,2.72
2022-10-09T12:17:45.873Z,2.50
2022-10-09T12:20:20.258Z,2.55
2022-10-09T12:23:13.851Z,2.83
2022-10-09T12:25:43.120Z,2.85
2022-10-09T12:28:34.465Z,2.20
2022-10-09T12:31:05.075Z,2.40
2022-10-09T12:33:45.730Z,2.35
2022-10-09T12:36:15.179Z,2.88
2022-10-09T12:38:42.874Z,2.22
2022-10-09T12:41:20.901Z,2.10
2022-10-09T12:43:50.580Z,3.55
2022-10-09T12:46:28.325Z,2.42
2022-10-09T12:48:55.492Z,2.20
2022-10-09T12:51:28.154Z,2.38
2022-10-09T12:53:55.278Z,2.10
2022-10-09T12:56:32.524Z,2.60
2022-10-09T12:59:02.092Z,2.90
2022-10-09T13:01:29.146Z,3.38
2022-10-09T13:04:01.006Z,5.13
2022-10-09T13:06:38.094Z,4.05
2022-10-09T13:14:04.996Z,2.63
2022-10-09T13:16:42.827Z,2.50
2022-10-09T13:19:33.410Z,2.50
2022-10-09T13:22:19.971Z,2.78
2022-10-09T13:24:49.699Z,2.40
2022-10-09T13:27:16.410Z,3.03
2022-10-09T13:29:43.204Z,2.38
2022-10-09T13:32:13.096Z,2.88
2022-10-09T13:34:39.880Z,2.95
2022-10-09T13:37:06.387Z,3.00
2022-10-09T13:39:33.780Z,2.40
2022-10-09T13:42:02.001Z,2.55
2022-10-09T13:44:28.547Z,2.70
2022-10-09T13:49:21.792Z,3.10
2022-10-09T13:51:48.357Z,3.13
2022-10-09T13:54:14.838Z,2.75
2022-10-09T13:59:07.837Z,2.90
2022-10-09T14:04:00.819Z,2.60
2022-10-09T14:06:27.826Z,2.80
2022-10-09T14:08:54.331Z,2.42
2022-10-09T14:11:20.827Z,2.72
2022-10-09T14:16:14.251Z,2.30
2022-10-09T14:18:40.705Z,2.35
2022-10-09T14:21:13.885Z,2.35
2022-10-09T14:23:41.667Z,3.00
2022-10-09T14:26:08.126Z,3.15
2022-10-09T14:31:05.922Z,3.08
2022-10-09T14:33:32.518Z,2.55
2022-10-09T14:38:32.398Z,3.60
2022-10-09T14:40:59.027Z,3.28
2022-10-09T14:43:25.537Z,4.45
2022-10-09T14:46:01.878Z,3.50
2022-10-09T14:48:28.378Z,4.00
2022-10-09T14:50:54.779Z,3.55
2022-10-09T14:53:21.266Z,3.13
2022-10-09T14:55:47.727Z,4.18
2022-10-09T14:58:14.173Z,4.47
2022-10-09T15:00:46.693Z,2.92
2022-10-09T15:03:13.299Z,3.53
2022-10-09T15:08:06.156Z,2.60
2022-10-09T15:10:34.425Z,3.05
2022-10-09T15:13:00.865Z,2.80
2022-10-09T15:15:31.830Z,2.80
2022-10-09T15:17:59.255Z,3.50
2022-10-09T15:20:25.747Z,3.50
2022-10-09T15:22:52.199Z,3.35
2022-10-09T15:27:45.169Z,3.03
2022-10-09T15:32:38.362Z,2.78
2022-10-09T15:35:05.309Z,2.20
2022-10-09T15:37:31.855Z,3.35
2022-10-09T15:39:58.283Z,4.30
2022-10-09T15:42:24.826Z,4.18
2022-10-09T15:44:51.502Z,3.70
2022-10-09T15:47:27.070Z,4.28
2022-10-09T15:50:04.888Z,3.63
2022-10-09T15:52:31.352Z,4.22
2022-10-09T15:54:57.965Z,3.88
2022-10-09T15:59:50.948Z,3.42
2022-10-09T16:02:17.425Z,2.92
2022-10-09T16:04:43.930Z,4.20
2022-10-09T16:09:37.138Z,2.92
2022-10-09T16:12:03.950Z,3.20
2022-10-09T16:14:31.689Z,3.00
2022-10-09T16:16:58.955Z,3.05
2022-10-09T16:19:25.467Z,3.65
2022-10-09T16:21:52.337Z,3.30
2022-10-09T16:24:18.943Z,3.25
2022-10-09T16:29:11.903Z,3.78
2022-10-09T16:31:38.492Z,5.72
2022-10-09T16:36:32.934Z,4.43
2022-10-09T16:38:59.917Z,4.40
2022-10-09T16:41:26.761Z,3.75
2022-10-09T16:43:55.683Z,3.80
2022-10-09T16:46:25.367Z,4.57
2022-10-09T16:48:53.293Z,3.65
2022-10-09T16:51:23.561Z,3.53
2022-10-09T16:53:54.813Z,4.15
2022-10-09T16:56:24.844Z,3.80
2022-10-09T16:58:56.146Z,3.78
2022-10-09T17:01:23.459Z,3.95
2022-10-09T17:03:49.915Z,3.30
2022-10-09T17:06:23.485Z,3.65
2022-10-09T17:08:51.121Z,3.25
2022-10-09T17:11:18.125Z,5.35
2022-10-09T17:13:45.628Z,4.28
2022-10-09T17:16:18.199Z,4.18
2022-10-09T17:18:45.945Z,3.60
2022-10-09T17:21:13.825Z,3.47
2022-10-09T17:23:41.070Z,4.18
2022-10-09T17:26:18.505Z,4.05
2022-10-09T17:28:46.467Z,6.60
2022-10-09T17:31:16.033Z,8.32
2022-10-09T17:33:45.905Z,9.15
2022-10-09T17:36:14.262Z,4.82
2022-10-09T17:38:40.750Z,4.00
2022-10-09T17:41:08.939Z,3.95
2022-10-09T17:43:35.394Z,5.78
2022-10-09T17:46:01.987Z,7.60
2022-10-09T17:50:58.118Z,7.30
2022-10-09T17:53:24.809Z,6.20
2022-10-09T17:55:53.530Z,6.07
2022-10-09T17:58:21.639Z,7.07
2022-10-09T18:00:49.155Z,8.70
2022-10-09T18:03:16.945Z,9.07
2022-10-09T18:05:45.185Z,9.07
2022-10-09T18:08:12.744Z,7.75
2022-10-09T18:10:39.432Z,6.70
2022-10-09T18:13:07.571Z,6.18
2022-10-09T18:15:37.865Z,5.57
2022-10-09T18:18:05.007Z,6.18
2022-10-09T18:20:34.599Z,6.03
2022-10-09T18:23:01.089Z,6.03
2022-10-09T18:25:27.518Z,7.70
2022-10-09T18:27:54.405Z,8.35
2022-10-09T18:30:20.893Z,7.28
2022-10-09T18:32:48.598Z,5.57
2022-10-09T18:35:15.414Z,5.78
2022-10-09T18:37:41.911Z,6.50
2022-10-09T18:40:08.849Z,6.47
2022-10-09T18:42:35.719Z,6.03
2022-10-09T18:45:03.300Z,5.25
2022-10-09T18:47:34.962Z,6.05
2022-10-09T18:50:06.609Z,7.15
2022-10-09T18:52:34.369Z,7.53
2022-10-09T18:55:02.473Z,6.70
2022-10-09T18:57:29.390Z,6.15
2022-10-09T18:59:57.438Z,5.65
2022-10-09T19:02:26.539Z,5.68
2022-10-09T19:04:54.568Z,5.30
2022-10-09T19:07:21.262Z,5.20
2022-10-09T19:09:55.015Z,4.60
2022-10-09T19:12:24.575Z,5.50
2022-10-09T19:14:51.661Z,6.05
2022-10-09T19:17:18.530Z,6.45
2022-10-09T19:19:45.177Z,6.18
2022-10-09T19:24:44.259Z,5.53
2022-10-09T19:27:11.125Z,5.28
2022-10-09T19:29:37.753Z,5.43
2022-10-09T19:34:30.852Z,5.18
2022-10-09T19:36:57.534Z,5.45
2022-10-09T19:39:24.043Z,5.28
2022-10-09T19:41:51.134Z,4.88
2022-10-09T19:44:17.986Z,5.13
2022-10-09T19:46:45.238Z,5.28
2022-10-09T19:49:12.117Z,5.55
2022-10-09T19:51:38.633Z,5.68
2022-10-09T19:54:07.684Z,6.05
2022-10-09T19:56:35.130Z,5.13
2022-10-09T19:59:06.379Z,5.00
2022-10-09T20:01:35.306Z,5.38
2022-10-09T20:04:05.293Z,4.72
2022-10-09T20:06:31.852Z,4.95
2022-10-09T20:11:26.206Z,4.85
2022-10-09T20:13:56.060Z,4.57
2022-10-09T20:16:24.516Z,5.13
2022-10-09T20:18:51.270Z,4.95
2022-10-09T20:21:18.049Z,4.40
2022-10-09T20:23:44.610Z,4.25
2022-10-09T20:28:39.934Z,4.93
2022-10-09T20:31:07.973Z,3.97
2022-10-09T20:33:35.753Z,4.70
2022-10-09T20:36:03.553Z,4.35
2022-10-09T20:38:30.010Z,4.68
2022-10-09T20:41:07.916Z,5.18
2022-10-09T20:43:35.574Z,4.65
2022-10-09T20:46:13.620Z,4.78
2022-10-09T20:48:43.973Z,5.20
2022-10-09T20:51:10.610Z,4.68
2022-10-09T20:56:06.760Z,4.93
2022-10-09T20:58:35.126Z,5.25
2022-10-09T21:01:07.188Z,4.88
2022-10-09T21:03:35.605Z,5.32
2022-10-09T21:06:07.315Z,4.35
2022-10-09T21:08:34.726Z,4.90
2022-10-09T21:11:07.703Z,5.22
2022-10-09T21:13:35.239Z,4.30
2022-10-09T21:16:05.126Z,4.65
2022-10-09T21:18:31.643Z,4.90
2022-10-09T21:21:04.222Z,5.28
2022-10-09T21:23:30.794Z,4.43
2022-10-09T21:28:24.498Z,4.00
2022-10-09T21:30:51.019Z,4.68
2022-10-09T21:33:18.081Z,4.88
2022-10-09T21:35:50.205Z,4.38
2022-10-09T21:38:19.673Z,4.10
2022-10-09T21:40:47.164Z,4.03
2022-10-09T21:43:13.789Z,4.15
2022-10-09T21:48:07.221Z,3.75
2022-10-09T21:50:34.538Z,4.93
2022-10-09T21:53:01.027Z,4.90
2022-10-09T21:55:27.486Z,4.35
2022-10-09T21:57:54.618Z,5.07
2022-10-09T22:00:21.446Z,5.15
2022-10-09T22:18:06.210Z,6.10
2022-10-09T22:22:59.228Z,5.65
2022-10-09T22:27:52.183Z,5.22
2022-10-09T22:32:45.073Z,5.25
2022-10-09T22:35:11.577Z,5.22
2022-10-09T22:37:38.115Z,4.60
2022-10-09T22:42:31.243Z,5.13
2022-10-09T22:47:24.042Z,4.72
2022-10-09T22:49:50.571Z,5.68
2022-10-09T22:52:17.038Z,5.30
2022-10-09T22:54:43.673Z,4.18
2022-10-09T22:59:36.471Z,4.82
2022-10-09T23:02:03.076Z,4.95
2022-10-09T23:06:58.098Z,5.00
2022-10-09T23:09:27.623Z,4.88
2022-10-09T23:11:54.704Z,4.90
2022-10-09T23:14:21.372Z,5.00
2022-10-09T23:16:48.154Z,4.78
2022-10-09T23:19:15.000Z,4.55
2022-10-09T23:21:43.689Z,4.40
2022-10-09T23:24:12.016Z,4.47
2022-10-09T23:26:38.588Z,4.97
2022-10-09T23:31:33.755Z,4.85
2022-10-09T23:34:00.478Z,5.05
2022-10-09T23:36:28.881Z,5.38
2022-10-09T23:38:56.783Z,4.78
2022-10-09T23:41:25.252Z,4.63
2022-10-09T23:43:52.135Z,4.18
2022-10-09T23:46:21.166Z,4.32
2022-10-09T23:48:48.799Z,4.95
2022-10-09T23:51:16.121Z,4.55
2022-10-09T23:53:43.516Z,4.72
2022-10-09T23:56:25.297Z,4.95
2022-10-09T23:58:53.215Z,4.55
